sensor_id;sensor_type;location;lat;lon;timestamp;P1;durP1;ratioP1;P2;durP2;ratioP2
55706;SDS011;41608;45.384;20.394;2023-02-21T00:00:51;29.63;;;18.98;;
55706;SDS011;41608;45.384;20.394;2023-02-21T00:03:38;27.60;;;18.52;;
55706;SDS011;41608;45.384;20.394;2023-02-21T00:06:22;28.85;;;18.30;;
55706;SDS011;41608;45.384;20.394;2023-02-21T00:09:07;26.70;;;18.10;;
55706;SDS011;41608;45.384;20.394;2023-02-21T00:11:52;34.30;;;19.30;;
55706;SDS011;41608;45.384;20.394;2023-02-21T00:14:37;33.05;;;20.00;;
55706;SDS011;41608;45.384;20.394;2023-02-21T00:17:24;30.38;;;19.70;;
55706;SDS011;41608;45.384;20.394;2023-02-21T00:20:09;31.98;;;19.10;;
55706;SDS011;41608;45.384;20.394;2023-02-21T00:22:54;35.53;;;19.58;;
55706;SDS011;41608;45.384;20.394;2023-02-21T00:25:38;30.38;;;18.80;;
55706;SDS011;41608;45.384;20.394;2023-02-21T00:28:23;29.92;;;18.45;;
55706;SDS011;41608;45.384;20.394;2023-02-21T00:31:07;25.58;;;17.20;;
55706;SDS011;41608;45.384;20.394;2023-02-21T00:33:52;28.90;;;19.10;;
55706;SDS011;41608;45.384;20.394;2023-02-21T00:36:36;28.42;;;17.67;;
55706;SDS011;41608;45.384;20.394;2023-02-21T00:39:38;19.75;;;14.38;;
55706;SDS011;41608;45.384;20.394;2023-02-21T00:42:23;19.35;;;13.20;;
55706;SDS011;41608;45.384;20.394;2023-02-21T00:45:07;23.02;;;15.18;;
55706;SDS011;41608;45.384;20.394;2023-02-21T00:47:55;18.45;;;12.48;;
55706;SDS011;41608;45.384;20.394;2023-02-21T00:50:40;16.63;;;11.73;;
55706;SDS011;41608;45.384;20.394;2023-02-21T00:53:25;17.48;;;11.98;;
55706;SDS011;41608;45.384;20.394;2023-02-21T00:56:09;15.48;;;10.18;;
55706;SDS011;41608;45.384;20.394;2023-02-21T00:58:54;21.65;;;12.02;;
55706;SDS011;41608;45.384;20.394;2023-02-21T01:01:38;20.45;;;14.35;;
55706;SDS011;41608;45.384;20.394;2023-02-21T01:04:23;21.98;;;15.23;;
55706;SDS011;41608;45.384;20.394;2023-02-21T01:07:08;25.77;;;19.05;;
55706;SDS011;41608;45.384;20.394;2023-02-21T01:09:53;21.35;;;14.60;;
55706;SDS011;41608;45.384;20.394;2023-02-21T01:12:38;17.15;;;11.35;;
55706;SDS011;41608;45.384;20.394;2023-02-21T01:15:23;25.27;;;14.13;;
55706;SDS011;41608;45.384;20.394;2023-02-21T01:18:07;22.73;;;11.20;;
55706;SDS011;41608;45.384;20.394;2023-02-21T01:20:52;21.35;;;13.27;;
55706;SDS011;41608;45.384;20.394;2023-02-21T01:23:36;19.35;;;13.45;;
55706;SDS011;41608;45.384;20.394;2023-02-21T01:26:21;25.90;;;14.02;;
55706;SDS011;41608;45.384;20.394;2023-02-21T01:29:05;57.97;;;36.45;;
55706;SDS011;41608;45.384;20.394;2023-02-21T01:31:50;51.45;;;34.97;;
55706;SDS011;41608;45.384;20.394;2023-02-21T01:34:37;44.40;;;27.27;;
55706;SDS011;41608;45.384;20.394;2023-02-21T01:37:21;29.75;;;20.08;;
55706;SDS011;41608;45.384;20.394;2023-02-21T01:40:09;20.33;;;14.55;;
55706;SDS011;41608;45.384;20.394;2023-02-21T01:42:57;19.75;;;12.10;;
55706;SDS011;41608;45.384;20.394;2023-02-21T01:45:43;19.92;;;14.38;;
55706;SDS011;41608;45.384;20.394;2023-02-21T01:48:29;16.75;;;10.18;;
55706;SDS011;41608;45.384;20.394;2023-02-21T01:51:17;19.05;;;11.07;;
55706;SDS011;41608;45.384;20.394;2023-02-21T01:54:03;19.70;;;11.80;;
55706;SDS011;41608;45.384;20.394;2023-02-21T01:56:48;15.73;;;10.75;;
55706;SDS011;41608;45.384;20.394;2023-02-21T01:59:33;16.80;;;10.80;;
55706;SDS011;41608;45.384;20.394;2023-02-21T02:02:21;18.45;;;10.63;;
55706;SDS011;41608;45.384;20.394;2023-02-21T02:05:07;19.10;;;11.35;;
55706;SDS011;41608;45.384;20.394;2023-02-21T02:07:53;17.13;;;10.68;;
55706;SDS011;41608;45.384;20.394;2023-02-21T02:10:38;13.55;;;10.70;;
55706;SDS011;41608;45.384;20.394;2023-02-21T02:18:38;19.77;;;10.05;;
55706;SDS011;41608;45.384;20.394;2023-02-21T02:44:19;15.00;;;10.35;;
55706;SDS011;41608;45.384;20.394;2023-02-21T02:46:46;18.10;;;11.23;;
55706;SDS011;41608;45.384;20.394;2023-02-21T02:49:16;14.48;;;10.95;;
55706;SDS011;41608;45.384;20.394;2023-02-21T02:51:43;13.52;;;10.98;;
55706;SDS011;41608;45.384;20.394;2023-02-21T02:54:09;14.38;;;10.80;;
55706;SDS011;41608;45.384;20.394;2023-02-21T02:56:35;15.60;;;10.30;;
55706;SDS011;41608;45.384;20.394;2023-02-21T02:59:10;13.57;;;10.38;;
55706;SDS011;41608;45.384;20.394;2023-02-21T03:20:44;17.48;;;10.30;;
55706;SDS011;41608;45.384;20.394;2023-02-21T03:23:12;16.95;;;9.40;;
55706;SDS011;41608;45.384;20.394;2023-02-21T03:25:39;15.77;;;9.45;;
55706;SDS011;41608;45.384;20.394;2023-02-21T03:28:05;14.15;;;9.52;;
55706;SDS011;41608;45.384;20.394;2023-02-21T03:30:31;11.35;;;9.05;;
55706;SDS011;41608;45.384;20.394;2023-02-21T03:32:57;10.98;;;8.75;;
55706;SDS011;41608;45.384;20.394;2023-02-21T03:35:27;11.90;;;7.95;;
55706;SDS011;41608;45.384;20.394;2023-02-21T03:37:54;13.18;;;8.40;;
55706;SDS011;41608;45.384;20.394;2023-02-21T03:40:24;9.10;;;7.50;;
55706;SDS011;41608;45.384;20.394;2023-02-21T03:42:51;13.77;;;9.00;;
55706;SDS011;41608;45.384;20.394;2023-02-21T03:45:17;10.73;;;7.55;;
55706;SDS011;41608;45.384;20.394;2023-02-21T03:47:43;10.85;;;8.68;;
55706;SDS011;41608;45.384;20.394;2023-02-21T03:50:10;15.50;;;8.82;;
55706;SDS011;41608;45.384;20.394;2023-02-21T03:52:36;13.55;;;8.50;;
55706;SDS011;41608;45.384;20.394;2023-02-21T03:55:02;14.77;;;9.38;;
55706;SDS011;41608;45.384;20.394;2023-02-21T03:57:28;17.40;;;8.75;;
55706;SDS011;41608;45.384;20.394;2023-02-21T03:59:54;11.40;;;8.57;;
55706;SDS011;41608;45.384;20.394;2023-02-21T04:02:21;12.18;;;8.90;;
55706;SDS011;41608;45.384;20.394;2023-02-21T04:04:47;12.40;;;8.50;;
55706;SDS011;41608;45.384;20.394;2023-02-21T04:07:14;11.20;;;8.38;;
55706;SDS011;41608;45.384;20.394;2023-02-21T04:09:40;11.75;;;7.95;;
55706;SDS011;41608;45.384;20.394;2023-02-21T04:12:07;13.25;;;8.88;;
55706;SDS011;41608;45.384;20.394;2023-02-21T04:14:33;10.77;;;8.52;;
55706;SDS011;41608;45.384;20.394;2023-02-21T04:16:59;11.82;;;8.50;;
55706;SDS011;41608;45.384;20.394;2023-02-21T04:19:25;10.52;;;8.40;;
55706;SDS011;41608;45.384;20.394;2023-02-21T04:21:51;12.63;;;9.00;;
55706;SDS011;41608;45.384;20.394;2023-02-21T04:24:17;12.05;;;9.20;;
55706;SDS011;41608;45.384;20.394;2023-02-21T04:26:43;16.13;;;11.27;;
55706;SDS011;41608;45.384;20.394;2023-02-21T04:29:09;14.02;;;9.13;;
55706;SDS011;41608;45.384;20.394;2023-02-21T04:31:36;15.45;;;9.60;;
55706;SDS011;41608;45.384;20.394;2023-02-21T04:34:02;13.68;;;9.25;;
55706;SDS011;41608;45.384;20.394;2023-02-21T04:36:28;14.52;;;9.88;;
55706;SDS011;41608;45.384;20.394;2023-02-21T04:38:54;13.40;;;10.05;;
55706;SDS011;41608;45.384;20.394;2023-02-21T04:41:21;15.20;;;10.38;;
55706;SDS011;41608;45.384;20.394;2023-02-21T04:43:47;14.07;;;9.73;;
55706;SDS011;41608;45.384;20.394;2023-02-21T04:46:14;13.70;;;9.65;;
55706;SDS011;41608;45.384;20.394;2023-02-21T04:48:44;17.77;;;12.15;;
55706;SDS011;41608;45.384;20.394;2023-02-21T04:51:14;14.43;;;10.57;;
55706;SDS011;41608;45.384;20.394;2023-02-21T04:53:42;17.15;;;10.70;;
55706;SDS011;41608;45.384;20.394;2023-02-21T04:56:10;17.35;;;10.18;;
55706;SDS011;41608;45.384;20.394;2023-02-21T04:58:37;16.88;;;10.40;;
55706;SDS011;41608;45.384;20.394;2023-02-21T05:01:03;17.02;;;9.90;;
55706;SDS011;41608;45.384;20.394;2023-02-21T05:03:29;14.98;;;11.05;;
55706;SDS011;41608;45.384;20.394;2023-02-21T05:05:55;15.35;;;9.55;;
55706;SDS011;41608;45.384;20.394;2023-02-21T05:08:21;13.18;;;9.70;;
55706;SDS011;41608;45.384;20.394;2023-02-21T05:10:48;16.33;;;11.30;;
55706;SDS011;41608;45.384;20.394;2023-02-21T05:13:14;27.30;;;15.52;;
55706;SDS011;41608;45.384;20.394;2023-02-21T05:15:41;22.60;;;14.38;;
55706;SDS011;41608;45.384;20.394;2023-02-21T05:18:07;21.55;;;13.80;;
55706;SDS011;41608;45.384;20.394;2023-02-21T05:20:33;19.80;;;11.90;;
55706;SDS011;41608;45.384;20.394;2023-02-21T05:22:59;24.38;;;15.50;;
55706;SDS011;41608;45.384;20.394;2023-02-21T05:25:25;23.38;;;15.63;;
55706;SDS011;41608;45.384;20.394;2023-02-21T05:27:52;19.95;;;11.60;;
55706;SDS011;41608;45.384;20.394;2023-02-21T05:30:21;17.42;;;11.35;;
55706;SDS011;41608;45.384;20.394;2023-02-21T05:32:50;19.92;;;12.82;;
55706;SDS011;41608;45.384;20.394;2023-02-21T05:35:17;18.30;;;12.98;;
55706;SDS011;41608;45.384;20.394;2023-02-21T05:37:43;23.00;;;15.43;;
55706;SDS011;41608;45.384;20.394;2023-02-21T05:40:09;25.50;;;16.35;;
55706;SDS011;41608;45.384;20.394;2023-02-21T05:42:36;22.23;;;14.48;;
55706;SDS011;41608;45.384;20.394;2023-02-21T05:45:02;20.25;;;13.20;;
55706;SDS011;41608;45.384;20.394;2023-02-21T05:47:32;19.65;;;11.65;;
55706;SDS011;41608;45.384;20.394;2023-02-21T05:49:58;21.88;;;15.70;;
55706;SDS011;41608;45.384;20.394;2023-02-21T05:52:25;24.40;;;15.00;;
55706;SDS011;41608;45.384;20.394;2023-02-21T05:54:51;24.88;;;15.68;;
55706;SDS011;41608;45.384;20.394;2023-02-21T05:57:17;26.42;;;16.92;;
55706;SDS011;41608;45.384;20.394;2023-02-21T05:59:44;23.27;;;14.90;;
55706;SDS011;41608;45.384;20.394;2023-02-21T06:02:12;33.85;;;19.50;;
55706;SDS011;41608;45.384;20.394;2023-02-21T06:04:38;30.50;;;20.17;;
55706;SDS011;41608;45.384;20.394;2023-02-21T06:07:04;24.17;;;16.73;;
55706;SDS011;41608;45.384;20.394;2023-02-21T06:09:30;26.40;;;15.27;;
55706;SDS011;41608;45.384;20.394;2023-02-21T06:11:59;23.13;;;14.40;;
55706;SDS011;41608;45.384;20.394;2023-02-21T06:14:27;21.13;;;13.02;;
55706;SDS011;41608;45.384;20.394;2023-02-21T06:16:53;18.00;;;12.23;;
55706;SDS011;41608;45.384;20.394;2023-02-21T06:19:19;26.10;;;14.23;;
55706;SDS011;41608;45.384;20.394;2023-02-21T06:21:45;17.63;;;13.30;;
55706;SDS011;41608;45.384;20.394;2023-02-21T06:24:14;21.38;;;12.02;;
55706;SDS011;41608;45.384;20.394;2023-02-21T06:26:40;22.80;;;12.45;;
55706;SDS011;41608;45.384;20.394;2023-02-21T06:29:06;23.60;;;13.70;;
55706;SDS011;41608;45.384;20.394;2023-02-21T06:31:32;21.23;;;13.35;;
55706;SDS011;41608;45.384;20.394;2023-02-21T06:34:00;23.75;;;12.40;;
55706;SDS011;41608;45.384;20.394;2023-02-21T06:36:26;21.50;;;13.95;;
55706;SDS011;41608;45.384;20.394;2023-02-21T06:38:53;25.27;;;14.63;;
55706;SDS011;41608;45.384;20.394;2023-02-21T06:41:24;20.58;;;13.75;;
55706;SDS011;41608;45.384;20.394;2023-02-21T06:43:53;26.10;;;15.23;;
55706;SDS011;41608;45.384;20.394;2023-02-21T06:46:20;25.40;;;15.48;;
55706;SDS011;41608;45.384;20.394;2023-02-21T06:48:47;22.48;;;14.52;;
55706;SDS011;41608;45.384;20.394;2023-02-21T06:51:13;23.77;;;14.13;;
55706;SDS011;41608;45.384;20.394;2023-02-21T06:53:40;21.55;;;13.85;;
55706;SDS011;41608;45.384;20.394;2023-02-21T06:56:08;23.83;;;15.07;;
55706;SDS011;41608;45.384;20.394;2023-02-21T06:58:35;21.42;;;12.20;;
55706;SDS011;41608;45.384;20.394;2023-02-21T07:01:01;12.90;;;10.73;;
55706;SDS011;41608;45.384;20.394;2023-02-21T07:03:27;17.15;;;10.95;;
55706;SDS011;41608;45.384;20.394;2023-02-21T07:05:53;17.80;;;11.15;;
55706;SDS011;41608;45.384;20.394;2023-02-21T07:08:19;19.20;;;11.40;;
55706;SDS011;41608;45.384;20.394;2023-02-21T07:10:46;24.25;;;13.43;;
55706;SDS011;41608;45.384;20.394;2023-02-21T07:13:12;14.90;;;11.02;;
55706;SDS011;41608;45.384;20.394;2023-02-21T07:15:38;19.52;;;13.30;;
55706;SDS011;41608;45.384;20.394;2023-02-21T07:18:04;36.75;;;14.32;;
55706;SDS011;41608;45.384;20.394;2023-02-21T07:20:30;19.10;;;12.27;;
55706;SDS011;41608;45.384;20.394;2023-02-21T07:22:57;18.25;;;11.55;;
55706;SDS011;41608;45.384;20.394;2023-02-21T07:25:23;16.80;;;11.02;;
55706;SDS011;41608;45.384;20.394;2023-02-21T07:27:49;16.30;;;10.55;;
55706;SDS011;41608;45.384;20.394;2023-02-21T07:30:16;18.92;;;13.18;;
55706;SDS011;41608;45.384;20.394;2023-02-21T07:32:43;17.35;;;11.60;;
55706;SDS011;41608;45.384;20.394;2023-02-21T07:35:11;14.95;;;10.60;;
55706;SDS011;41608;45.384;20.394;2023-02-21T07:37:37;14.23;;;11.50;;
55706;SDS011;41608;45.384;20.394;2023-02-21T07:40:06;15.80;;;11.63;;
55706;SDS011;41608;45.384;20.394;2023-02-21T07:42:32;15.50;;;9.82;;
55706;SDS011;41608;45.384;20.394;2023-02-21T07:44:59;16.23;;;10.65;;
55706;SDS011;41608;45.384;20.394;2023-02-21T07:47:25;15.00;;;11.02;;
55706;SDS011;41608;45.384;20.394;2023-02-21T07:49:52;16.45;;;10.60;;
55706;SDS011;41608;45.384;20.394;2023-02-21T07:52:18;16.13;;;11.10;;
55706;SDS011;41608;45.384;20.394;2023-02-21T07:54:45;17.25;;;12.68;;
55706;SDS011;41608;45.384;20.394;2023-02-21T07:57:11;10.73;;;8.00;;
55706;SDS011;41608;45.384;20.394;2023-02-21T07:59:37;13.23;;;8.77;;
55706;SDS011;41608;45.384;20.394;2023-02-21T08:02:03;13.50;;;8.35;;
55706;SDS011;41608;45.384;20.394;2023-02-21T08:04:29;16.55;;;8.45;;
55706;SDS011;41608;45.384;20.394;2023-02-21T08:06:59;14.10;;;9.07;;
55706;SDS011;41608;45.384;20.394;2023-02-21T08:09:25;14.82;;;7.72;;
55706;SDS011;41608;45.384;20.394;2023-02-21T08:11:51;10.13;;;8.05;;
55706;SDS011;41608;45.384;20.394;2023-02-21T08:14:17;12.88;;;9.23;;
55706;SDS011;41608;45.384;20.394;2023-02-21T08:16:43;13.13;;;8.18;;
55706;SDS011;41608;45.384;20.394;2023-02-21T08:19:09;12.60;;;8.73;;
55706;SDS011;41608;45.384;20.394;2023-02-21T08:21:35;15.73;;;8.55;;
55706;SDS011;41608;45.384;20.394;2023-02-21T08:24:02;9.18;;;7.65;;
55706;SDS011;41608;45.384;20.394;2023-02-21T08:26:28;12.25;;;7.95;;
55706;SDS011;41608;45.384;20.394;2023-02-21T08:28:54;11.50;;;8.55;;
55706;SDS011;41608;45.384;20.394;2023-02-21T08:31:20;11.05;;;8.25;;
55706;SDS011;41608;45.384;20.394;2023-02-21T08:33:46;14.68;;;9.40;;
55706;SDS011;41608;45.384;20.394;2023-02-21T08:36:12;12.38;;;9.18;;
55706;SDS011;41608;45.384;20.394;2023-02-21T08:38:38;12.95;;;9.60;;
55706;SDS011;41608;45.384;20.394;2023-02-21T08:41:05;12.48;;;8.50;;
55706;SDS011;41608;45.384;20.394;2023-02-21T08:43:32;12.77;;;9.18;;
55706;SDS011;41608;45.384;20.394;2023-02-21T08:46:01;14.68;;;8.50;;
55706;SDS011;41608;45.384;20.394;2023-02-21T08:48:27;12.52;;;9.52;;
55706;SDS011;41608;45.384;20.394;2023-02-21T08:50:53;12.30;;;10.25;;
55706;SDS011;41608;45.384;20.394;2023-02-21T08:53:19;13.35;;;9.45;;
55706;SDS011;41608;45.384;20.394;2023-02-21T08:55:45;10.98;;;8.82;;
55706;SDS011;41608;45.384;20.394;2023-02-21T08:58:11;12.93;;;8.48;;
55706;SDS011;41608;45.384;20.394;2023-02-21T09:00:37;12.93;;;10.13;;
55706;SDS011;41608;45.384;20.394;2023-02-21T09:03:04;13.15;;;9.30;;
55706;SDS011;41608;45.384;20.394;2023-02-21T09:05:32;12.40;;;9.52;;
55706;SDS011;41608;45.384;20.394;2023-02-21T09:07:59;16.45;;;9.77;;
55706;SDS011;41608;45.384;20.394;2023-02-21T09:10:29;12.77;;;8.60;;
55706;SDS011;41608;45.384;20.394;2023-02-21T09:12:58;15.23;;;9.50;;
55706;SDS011;41608;45.384;20.394;2023-02-21T09:15:24;12.93;;;9.10;;
55706;SDS011;41608;45.384;20.394;2023-02-21T09:17:50;12.77;;;9.00;;
55706;SDS011;41608;45.384;20.394;2023-02-21T09:20:20;11.88;;;9.00;;
55706;SDS011;41608;45.384;20.394;2023-02-21T09:22:46;11.00;;;8.38;;
55706;SDS011;41608;45.384;20.394;2023-02-21T09:25:14;13.77;;;8.52;;
55706;SDS011;41608;45.384;20.394;2023-02-21T09:27:40;11.82;;;8.38;;
55706;SDS011;41608;45.384;20.394;2023-02-21T09:30:08;11.10;;;8.40;;
55706;SDS011;41608;45.384;20.394;2023-02-21T09:32:34;12.07;;;9.80;;
55706;SDS011;41608;45.384;20.394;2023-02-21T09:35:01;14.50;;;9.18;;
55706;SDS011;41608;45.384;20.394;2023-02-21T09:37:28;12.05;;;8.50;;
55706;SDS011;41608;45.384;20.394;2023-02-21T09:39:54;16.35;;;10.30;;
55706;SDS011;41608;45.384;20.394;2023-02-21T09:42:21;13.60;;;8.80;;
55706;SDS011;41608;45.384;20.394;2023-02-21T09:44:49;10.85;;;8.10;;
55706;SDS011;41608;45.384;20.394;2023-02-21T09:47:26;11.05;;;7.85;;
55706;SDS011;41608;45.384;20.394;2023-02-21T09:49:56;12.43;;;8.52;;
55706;SDS011;41608;45.384;20.394;2023-02-21T09:52:33;10.98;;;7.20;;
55706;SDS011;41608;45.384;20.394;2023-02-21T09:55:26;11.85;;;8.43;;
55706;SDS011;41608;45.384;20.394;2023-02-21T10:00:15;12.18;;;9.48;;
55706;SDS011;41608;45.384;20.394;2023-02-21T10:02:48;11.23;;;8.57;;
55706;SDS011;41608;45.384;20.394;2023-02-21T10:05:17;11.85;;;8.57;;
55706;SDS011;41608;45.384;20.394;2023-02-21T10:08:08;10.88;;;8.00;;
55706;SDS011;41608;45.384;20.394;2023-02-21T10:10:48;11.90;;;9.07;;
55706;SDS011;41608;45.384;20.394;2023-02-21T10:15:57;10.45;;;8.10;;
55706;SDS011;41608;45.384;20.394;2023-02-21T10:21:01;10.52;;;7.13;;
55706;SDS011;41608;45.384;20.394;2023-02-21T10:26:06;11.80;;;7.57;;
55706;SDS011;41608;45.384;20.394;2023-02-21T10:28:34;14.88;;;7.05;;
55706;SDS011;41608;45.384;20.394;2023-02-21T10:31:01;10.02;;;7.80;;
55706;SDS011;41608;45.384;20.394;2023-02-21T10:33:28;13.35;;;8.93;;
55706;SDS011;41608;45.384;20.394;2023-02-21T10:35:57;14.38;;;8.77;;
55706;SDS011;41608;45.384;20.394;2023-02-21T10:38:24;13.32;;;8.23;;
55706;SDS011;41608;45.384;20.394;2023-02-21T10:40:55;13.05;;;8.70;;
55706;SDS011;41608;45.384;20.394;2023-02-21T10:43:30;15.80;;;8.15;;
55706;SDS011;41608;45.384;20.394;2023-02-21T10:48:26;14.57;;;8.70;;
55706;SDS011;41608;45.384;20.394;2023-02-21T10:58:33;11.82;;;7.10;;
55706;SDS011;41608;45.384;20.394;2023-02-21T11:08:57;11.57;;;7.50;;
55706;SDS011;41608;45.384;20.394;2023-02-21T11:11:58;11.90;;;6.78;;
55706;SDS011;41608;45.384;20.394;2023-02-21T11:16:42;10.90;;;6.82;;
55706;SDS011;41608;45.384;20.394;2023-02-21T11:19:09;13.00;;;6.93;;
55706;SDS011;41608;45.384;20.394;2023-02-21T11:21:37;10.75;;;6.90;;
55706;SDS011;41608;45.384;20.394;2023-02-21T11:24:06;8.38;;;6.00;;
55706;SDS011;41608;45.384;20.394;2023-02-21T11:26:35;9.25;;;5.93;;
55706;SDS011;41608;45.384;20.394;2023-02-21T11:29:09;8.18;;;4.57;;
55706;SDS011;41608;45.384;20.394;2023-02-21T11:31:36;8.27;;;5.43;;
55706;SDS011;41608;45.384;20.394;2023-02-21T11:34:03;9.52;;;5.07;;
55706;SDS011;41608;45.384;20.394;2023-02-21T11:36:33;8.63;;;4.72;;
55706;SDS011;41608;45.384;20.394;2023-02-21T11:39:01;5.88;;;3.13;;
55706;SDS011;41608;45.384;20.394;2023-02-21T11:43:57;8.00;;;5.40;;
55706;SDS011;41608;45.384;20.394;2023-02-21T11:49:23;8.77;;;5.28;;
55706;SDS011;41608;45.384;20.394;2023-02-21T11:54:21;8.90;;;4.38;;
55706;SDS011;41608;45.384;20.394;2023-02-21T11:57:01;6.50;;;4.25;;
55706;SDS011;41608;45.384;20.394;2023-02-21T11:59:36;8.60;;;5.85;;
55706;SDS011;41608;45.384;20.394;2023-02-21T12:10:24;4.45;;;3.88;;
55706;SDS011;41608;45.384;20.394;2023-02-21T12:23:15;10.73;;;5.55;;
55706;SDS011;41608;45.384;20.394;2023-02-21T12:38:57;8.50;;;5.90;;
55706;SDS011;41608;45.384;20.394;2023-02-21T12:41:35;9.85;;;5.63;;
55706;SDS011;41608;45.384;20.394;2023-02-21T12:46:45;13.93;;;7.50;;
55706;SDS011;41608;45.384;20.394;2023-02-21T12:51:43;8.70;;;6.00;;
55706;SDS011;41608;45.384;20.394;2023-02-21T12:59:18;11.55;;;6.47;;
55706;SDS011;41608;45.384;20.394;2023-02-21T13:01:48;15.90;;;7.60;;
55706;SDS011;41608;45.384;20.394;2023-02-21T13:07:03;7.75;;;6.15;;
55706;SDS011;41608;45.384;20.394;2023-02-21T13:12:06;8.95;;;5.20;;
55706;SDS011;41608;45.384;20.394;2023-02-21T13:15:12;6.70;;;5.10;;
55706;SDS011;41608;45.384;20.394;2023-02-21T13:17:25;8.90;;;5.20;;
55706;SDS011;41608;45.384;20.394;2023-02-21T13:20:03;9.13;;;6.03;;
55706;SDS011;41608;45.384;20.394;2023-02-21T13:33:02;10.15;;;5.72;;
55706;SDS011;41608;45.384;20.394;2023-02-21T13:35:35;12.95;;;5.93;;
55706;SDS011;41608;45.384;20.394;2023-02-21T13:38:03;8.68;;;5.60;;
55706;SDS011;41608;45.384;20.394;2023-02-21T13:43:01;9.43;;;6.50;;
55706;SDS011;41608;45.384;20.394;2023-02-21T13:45:31;10.40;;;5.68;;
55706;SDS011;41608;45.384;20.394;2023-02-21T13:55:37;8.13;;;6.13;;
55706;SDS011;41608;45.384;20.394;2023-02-21T14:03:02;10.93;;;6.80;;
55706;SDS011;41608;45.384;20.394;2023-02-21T14:10:54;9.27;;;6.25;;
55706;SDS011;41608;45.384;20.394;2023-02-21T14:21:14;6.93;;;5.20;;
55706;SDS011;41608;45.384;20.394;2023-02-21T14:23:44;10.38;;;5.90;;
55706;SDS011;41608;45.384;20.394;2023-02-21T14:26:33;9.52;;;5.78;;
55706;SDS011;41608;45.384;20.394;2023-02-21T14:34:07;8.27;;;5.10;;
55706;SDS011;41608;45.384;20.394;2023-02-21T14:36:37;8.98;;;5.22;;
55706;SDS011;41608;45.384;20.394;2023-02-21T14:39:03;10.15;;;5.63;;
55706;SDS011;41608;45.384;20.394;2023-02-21T14:41:34;9.73;;;5.57;;
55706;SDS011;41608;45.384;20.394;2023-02-21T14:49:42;11.25;;;5.65;;
55706;SDS011;41608;45.384;20.394;2023-02-21T15:10:03;7.90;;;4.97;;
55706;SDS011;41608;45.384;20.394;2023-02-21T15:12:30;9.60;;;5.45;;
55706;SDS011;41608;45.384;20.394;2023-02-21T15:15:00;12.25;;;6.13;;
55706;SDS011;41608;45.384;20.394;2023-02-21T15:17:26;9.68;;;5.30;;
55706;SDS011;41608;45.384;20.394;2023-02-21T15:20:06;12.02;;;6.00;;
55706;SDS011;41608;45.384;20.394;2023-02-21T15:22:37;11.43;;;5.60;;
55706;SDS011;41608;45.384;20.394;2023-02-21T15:27:37;8.93;;;5.15;;
55706;SDS011;41608;45.384;20.394;2023-02-21T15:30:13;11.98;;;5.28;;
55706;SDS011;41608;45.384;20.394;2023-02-21T15:32:40;7.57;;;4.20;;
55706;SDS011;41608;45.384;20.394;2023-02-21T15:35:10;9.70;;;5.57;;
55706;SDS011;41608;45.384;20.394;2023-02-21T15:37:38;12.80;;;5.40;;
55706;SDS011;41608;45.384;20.394;2023-02-21T15:40:07;10.23;;;5.25;;
55706;SDS011;41608;45.384;20.394;2023-02-21T15:42:41;9.43;;;5.35;;
55706;SDS011;41608;45.384;20.394;2023-02-21T15:45:09;10.32;;;6.45;;
55706;SDS011;41608;45.384;20.394;2023-02-21T15:47:36;16.23;;;7.13;;
55706;SDS011;41608;45.384;20.394;2023-02-21T15:52:50;11.80;;;7.60;;
55706;SDS011;41608;45.384;20.394;2023-02-21T15:59:47;12.90;;;7.63;;
55706;SDS011;41608;45.384;20.394;2023-02-21T16:02:14;14.05;;;6.65;;
55706;SDS011;41608;45.384;20.394;2023-02-21T16:04:42;9.48;;;6.60;;
55706;SDS011;41608;45.384;20.394;2023-02-21T16:07:14;10.35;;;7.45;;
55706;SDS011;41608;45.384;20.394;2023-02-21T16:09:44;17.30;;;7.85;;
55706;SDS011;41608;45.384;20.394;2023-02-21T16:14:45;14.32;;;7.22;;
55706;SDS011;41608;45.384;20.394;2023-02-21T16:19:42;16.45;;;9.55;;
55706;SDS011;41608;45.384;20.394;2023-02-21T16:22:13;22.65;;;11.25;;
55706;SDS011;41608;45.384;20.394;2023-02-21T16:24:39;21.33;;;12.60;;
55706;SDS011;41608;45.384;20.394;2023-02-21T16:27:08;18.23;;;10.68;;
55706;SDS011;41608;45.384;20.394;2023-02-21T16:29:35;20.83;;;13.70;;
55706;SDS011;41608;45.384;20.394;2023-02-21T16:32:01;22.20;;;13.95;;
55706;SDS011;41608;45.384;20.394;2023-02-21T16:34:29;28.80;;;14.50;;
55706;SDS011;41608;45.384;20.394;2023-02-21T16:37:05;22.63;;;13.90;;
55706;SDS011;41608;45.384;20.394;2023-02-21T16:39:35;28.63;;;15.88;;
55706;SDS011;41608;45.384;20.394;2023-02-21T16:42:02;27.10;;;16.98;;
55706;SDS011;41608;45.384;20.394;2023-02-21T16:44:28;25.63;;;15.57;;
55706;SDS011;41608;45.384;20.394;2023-02-21T16:46:54;22.70;;;16.58;;
55706;SDS011;41608;45.384;20.394;2023-02-21T16:49:20;36.80;;;23.27;;
55706;SDS011;41608;45.384;20.394;2023-02-21T16:51:46;46.28;;;25.90;;
55706;SDS011;41608;45.384;20.394;2023-02-21T16:54:15;76.60;;;44.88;;
55706;SDS011;41608;45.384;20.394;2023-02-21T16:56:42;39.97;;;24.48;;
55706;SDS011;41608;45.384;20.394;2023-02-21T16:59:18;57.92;;;32.15;;
55706;SDS011;41608;45.384;20.394;2023-02-21T17:01:47;28.60;;;17.73;;
55706;SDS011;41608;45.384;20.394;2023-02-21T17:04:18;26.58;;;18.65;;
55706;SDS011;41608;45.384;20.394;2023-02-21T17:06:49;37.00;;;22.92;;
55706;SDS011;41608;45.384;20.394;2023-02-21T17:09:17;45.33;;;27.67;;
55706;SDS011;41608;45.384;20.394;2023-02-21T17:11:43;45.78;;;30.83;;
55706;SDS011;41608;45.384;20.394;2023-02-21T17:14:10;44.38;;;32.42;;
55706;SDS011;41608;45.384;20.394;2023-02-21T17:16:38;43.95;;;27.40;;
55706;SDS011;41608;45.384;20.394;2023-02-21T17:19:15;40.00;;;27.73;;
55706;SDS011;41608;45.384;20.394;2023-02-21T17:21:41;37.88;;;25.35;;
55706;SDS011;41608;45.384;20.394;2023-02-21T17:24:11;34.67;;;22.85;;
55706;SDS011;41608;45.384;20.394;2023-02-21T17:26:37;36.83;;;25.17;;
55706;SDS011;41608;45.384;20.394;2023-02-21T17:29:04;38.45;;;25.50;;
55706;SDS011;41608;45.384;20.394;2023-02-21T17:31:33;31.73;;;23.52;;
55706;SDS011;41608;45.384;20.394;2023-02-21T17:33:59;31.50;;;21.20;;
55706;SDS011;41608;45.384;20.394;2023-02-21T17:36:26;27.67;;;19.92;;
55706;SDS011;41608;45.384;20.394;2023-02-21T17:38:53;28.98;;;18.67;;
55706;SDS011;41608;45.384;20.394;2023-02-21T17:41:19;36.97;;;26.25;;
55706;SDS011;41608;45.384;20.394;2023-02-21T17:43:46;38.47;;;27.17;;
55706;SDS011;41608;45.384;20.394;2023-02-21T17:46:13;32.72;;;22.95;;
55706;SDS011;41608;45.384;20.394;2023-02-21T17:48:42;33.58;;;22.15;;
55706;SDS011;41608;45.384;20.394;2023-02-21T17:51:09;32.38;;;22.90;;
55706;SDS011;41608;45.384;20.394;2023-02-21T17:53:41;31.00;;;21.70;;
55706;SDS011;41608;45.384;20.394;2023-02-21T17:56:07;36.38;;;24.00;;
55706;SDS011;41608;45.384;20.394;2023-02-21T17:58:33;36.45;;;22.65;;
55706;SDS011;41608;45.384;20.394;2023-02-21T18:00:59;37.22;;;26.50;;
55706;SDS011;41608;45.384;20.394;2023-02-21T18:03:25;34.83;;;24.23;;
55706;SDS011;41608;45.384;20.394;2023-02-21T18:05:51;59.72;;;27.17;;
55706;SDS011;41608;45.384;20.394;2023-02-21T18:08:17;40.33;;;27.80;;
55706;SDS011;41608;45.384;20.394;2023-02-21T18:10:43;45.85;;;28.60;;